• Join FlightAware (Why Join?)
  • Login
  • US Flag 
12:15PM EST


 

Airport Tracker/Info


-or-


 

Live Flight TrackerFlight Track Log ✈ N552SR ✈ 26-Jul-2013 ✈ KACK - KDXR

Flight Track Log - Related Links

Times and Time Zones

All times are in EDT time to prevent confusion due to time zone crossing. See the N552SR flight status page for this flight to view local times or setup timezone preferences in your user account.

Time Position Orientation Groundspeed Altitude Reporting Facility
EDT Latitude Longitude Course Direction KTS MPH feet Rate Location/Type
01:53PM 41.3230 -70.3689 294° West  Level FlightAware Approximate
01:54PM 41.3385 -70.4206 288° West  Level FlightAware Approximate
01:55PM 41.3518 -70.4735 288° West  Level FlightAware Approximate
01:56PM 41.3650 -70.5265 288° West  Level FlightAware Approximate
01:57PM 41.3782 -70.5795 288° West  Level FlightAware Approximate
01:58PM 41.3756 -70.6326 252° West  Level FlightAware Approximate
01:59PM 41.3629 -70.6858 252° West  Level FlightAware Approximate
02:00PM 41.3502 -70.7389 252° West  Level FlightAware Approximate
02:01PM 41.3375 -70.7921 252° West  Level FlightAware Approximate
02:01PM 41.3356 -70.7647 267° West 177 204 6,000  Level Boston Center
02:02PM 41.3247 -70.8452 252° West  Level FlightAware Approximate
02:02PM 41.3181 -70.8536 255° West 170 196 6,000  Level Boston Center
02:03PM 41.3119 -70.8983 252° West  Level FlightAware Approximate
02:03PM 41.3083 -70.9092 257° West 167 192 5,900  Level Boston Center
02:04PM 41.2766 -70.9357 219° Southwest  Level FlightAware Approximate
02:04PM 41.2967 -70.9675 255° West 173 199 5,900  Level Boston Center
02:05PM 41.2413 -70.9730 218° Southwest  Level FlightAware Approximate
02:05PM 41.2828 -71.0286 253° West 169 194 5,900  Level Boston Center
02:06PM 41.2451 -71.0328 267° West  Level Estimated
02:06PM 41.2692 -71.0925 254° West 167 192 5,900  Level Boston Center
02:07PM 41.2572 -71.1506 255° West 168 193 5,900  Level Boston Center
02:08PM 41.2453 -71.2089 255° West 171 197 5,900  Level Boston Center
02:09PM 41.2314 -71.2781 255° West 173 199 5,900  Level Boston Center
02:10PM 41.2175 -71.3364 252° West 170 196 5,900  Level Boston Center
02:11PM 41.2036 -71.4000 254° West 173 199 5,900  Level Boston Center
02:12PM 41.1936 -71.4525 256° West 172 198 5,900  Level Boston Center
02:13PM 41.1794 -71.5189 254° West 173 199 5,900  Level Boston Center
02:14PM 41.1633 -71.5881 253° West 172 198 5,900  Level Boston Center
02:15PM 41.1639 -71.6433 271° West 156 180 5,900  Level Boston Center
02:16PM 41.1622 -71.7094 268° West 162 186 5,900  Level Boston Center
02:17PM 41.1647 -71.7700 273° West 161 185 5,900  Level Boston Center
02:18PM 41.1628 -71.8225 267° West 153 176 5,900 -240 Level Boston Center
02:19PM 41.1611 -71.8831 268° West 171 197 5,500 -420 Descending Boston Center
02:20PM 41.1594 -71.9467 268° West 175 201 5,100 -480 Descending Boston Center
02:21PM 41.1575 -72.0211 268° West 188 216 4,600 -420 Descending Boston Center
02:23PM 41.1500 -72.1333 265° West 181 208 4,000 -240 Descending New York TRACON
02:24PM 41.1500 -72.2000 270° West 166 191 4,000  Level New York TRACON
02:25PM 41.1333 -72.2500 246° West 171 197 4,000 120 Level New York TRACON
02:26PM 41.1167 -72.3167 252° West 163 188 4,300 360 Climbing New York TRACON
02:27PM 41.1167 -72.3667 270° West 150 173 4,800 420 Climbing New York TRACON
02:28PM 41.1167 -72.4167 270° West 152 175 5,100 360 Climbing New York TRACON
02:29PM 41.1167 -72.4667 270° West 147 169 5,500 360 Climbing New York TRACON
02:30PM 41.1167 -72.5167 270° West 150 173 5,900 180 Climbing New York TRACON
02:31PM 41.1167 -72.5833 270° West 163 188 5,900  Level New York TRACON
02:32PM 41.1333 -72.6500 288° West 166 191 5,900  Level New York TRACON
02:33PM 41.1333 -72.7000 270° West 166 191 5,900  Level New York TRACON
02:34PM 41.1333 -72.7667 270° West 167 192 5,900  Level New York TRACON
02:35PM 41.1333 -72.8333 270° West 165 190 5,900  Level New York TRACON
02:36PM 41.1500 -72.8833 294° West 164 189 5,900 -180 Level New York TRACON
02:37PM 41.1667 -72.9333 294° West 177 204 5,600 -540 Descending New York TRACON
02:38PM 41.1833 -73.0000 288° West 182 209 4,900 -780 Descending New York TRACON
02:39PM 41.2000 -73.0500 294° West 183 211 4,100 -840 Descending New York TRACON
02:40PM 41.2333 -73.1167 304° West 184 212 3,300 -600 Descending New York TRACON
02:41PM 41.2500 -73.1833 288° West 177 204 3,000 -360 Descending New York TRACON
02:42PM 41.2833 -73.2333 312° West 175 201 2,600 -300 Descending New York TRACON
02:43PM 41.3000 -73.2833 294° West 172 198 2,400 -240 Descending New York TRACON